sensor_id;sensor_type;location;lat;lon;timestamp;P1;durP1;ratioP1;P2;durP2;ratioP2
77202;SDS011;66327;50.096;8.498;2023-12-14T00:00:55;6.35;;;3.20;;
77202;SDS011;66327;50.096;8.498;2023-12-14T00:03:22;6.70;;;3.17;;
77202;SDS011;66327;50.096;8.498;2023-12-14T00:05:48;5.80;;;3.30;;
77202;SDS011;66327;50.096;8.498;2023-12-14T00:08:14;5.97;;;3.15;;
77202;SDS011;66327;50.096;8.498;2023-12-14T00:10:41;5.35;;;3.28;;
77202;SDS011;66327;50.096;8.498;2023-12-14T00:13:07;5.80;;;2.97;;
77202;SDS011;66327;50.096;8.498;2023-12-14T00:15:34;7.85;;;3.38;;
77202;SDS011;66327;50.096;8.498;2023-12-14T00:18:00;8.23;;;3.60;;
77202;SDS011;66327;50.096;8.498;2023-12-14T00:20:26;11.07;;;4.00;;
77202;SDS011;66327;50.096;8.498;2023-12-14T00:22:52;9.95;;;3.90;;
77202;SDS011;66327;50.096;8.498;2023-12-14T00:25:19;7.97;;;3.47;;
77202;SDS011;66327;50.096;8.498;2023-12-14T00:27:45;10.65;;;4.40;;
77202;SDS011;66327;50.096;8.498;2023-12-14T00:30:11;7.97;;;4.25;;
77202;SDS011;66327;50.096;8.498;2023-12-14T00:32:38;8.48;;;4.13;;
77202;SDS011;66327;50.096;8.498;2023-12-14T00:35:04;6.35;;;3.53;;
77202;SDS011;66327;50.096;8.498;2023-12-14T00:37:31;5.70;;;3.47;;
77202;SDS011;66327;50.096;8.498;2023-12-14T00:39:57;6.53;;;3.20;;
77202;SDS011;66327;50.096;8.498;2023-12-14T00:42:23;8.75;;;3.55;;
77202;SDS011;66327;50.096;8.498;2023-12-14T00:44:49;8.10;;;3.13;;
77202;SDS011;66327;50.096;8.498;2023-12-14T00:47:16;6.13;;;3.38;;
77202;SDS011;66327;50.096;8.498;2023-12-14T00:49:42;7.68;;;3.30;;
77202;SDS011;66327;50.096;8.498;2023-12-14T00:52:08;7.05;;;3.40;;
77202;SDS011;66327;50.096;8.498;2023-12-14T00:54:35;7.38;;;3.70;;
77202;SDS011;66327;50.096;8.498;2023-12-14T00:57:01;8.13;;;3.40;;
77202;SDS011;66327;50.096;8.498;2023-12-14T00:59:28;5.90;;;3.28;;
77202;SDS011;66327;50.096;8.498;2023-12-14T01:01:55;5.97;;;2.92;;
77202;SDS011;66327;50.096;8.498;2023-12-14T01:04:21;8.23;;;2.97;;
77202;SDS011;66327;50.096;8.498;2023-12-14T01:06:48;8.30;;;2.70;;
77202;SDS011;66327;50.096;8.498;2023-12-14T01:09:14;5.78;;;2.78;;
77202;SDS011;66327;50.096;8.498;2023-12-14T01:11:41;6.20;;;3.20;;
77202;SDS011;66327;50.096;8.498;2023-12-14T01:14:07;6.63;;;3.22;;
77202;SDS011;66327;50.096;8.498;2023-12-14T01:16:33;6.28;;;2.85;;
77202;SDS011;66327;50.096;8.498;2023-12-14T01:19:00;7.22;;;3.20;;
77202;SDS011;66327;50.096;8.498;2023-12-14T01:21:26;6.43;;;3.17;;
77202;SDS011;66327;50.096;8.498;2023-12-14T01:23:52;7.65;;;3.50;;
77202;SDS011;66327;50.096;8.498;2023-12-14T01:26:19;7.50;;;2.80;;
77202;SDS011;66327;50.096;8.498;2023-12-14T01:28:45;7.13;;;3.72;;
77202;SDS011;66327;50.096;8.498;2023-12-14T01:31:12;7.97;;;3.42;;
77202;SDS011;66327;50.096;8.498;2023-12-14T01:33:38;5.78;;;3.00;;
77202;SDS011;66327;50.096;8.498;2023-12-14T01:36:22;10.35;;;3.70;;
77202;SDS011;66327;50.096;8.498;2023-12-14T01:38:48;7.72;;;3.70;;
77202;SDS011;66327;50.096;8.498;2023-12-14T01:41:15;7.65;;;3.72;;
77202;SDS011;66327;50.096;8.498;2023-12-14T01:43:41;7.18;;;3.83;;
77202;SDS011;66327;50.096;8.498;2023-12-14T01:46:08;6.32;;;3.50;;
77202;SDS011;66327;50.096;8.498;2023-12-14T01:48:34;8.48;;;4.03;;
77202;SDS011;66327;50.096;8.498;2023-12-14T01:51:00;12.95;;;4.43;;
77202;SDS011;66327;50.096;8.498;2023-12-14T01:53:27;9.50;;;4.35;;
77202;SDS011;66327;50.096;8.498;2023-12-14T01:55:53;7.10;;;3.90;;
77202;SDS011;66327;50.096;8.498;2023-12-14T01:58:19;12.10;;;5.65;;
77202;SDS011;66327;50.096;8.498;2023-12-14T02:00:49;8.93;;;4.13;;
77202;SDS011;66327;50.096;8.498;2023-12-14T02:03:18;9.98;;;4.10;;
77202;SDS011;66327;50.096;8.498;2023-12-14T02:05:44;7.95;;;3.85;;
77202;SDS011;66327;50.096;8.498;2023-12-14T02:08:10;7.07;;;3.63;;
77202;SDS011;66327;50.096;8.498;2023-12-14T02:10:37;8.32;;;4.15;;
77202;SDS011;66327;50.096;8.498;2023-12-14T02:13:04;7.47;;;3.50;;
77202;SDS011;66327;50.096;8.498;2023-12-14T02:15:30;6.55;;;3.30;;
77202;SDS011;66327;50.096;8.498;2023-12-14T02:17:56;8.98;;;3.30;;
77202;SDS011;66327;50.096;8.498;2023-12-14T02:20:23;8.02;;;3.53;;
77202;SDS011;66327;50.096;8.498;2023-12-14T02:22:50;5.72;;;3.25;;
77202;SDS011;66327;50.096;8.498;2023-12-14T02:25:16;6.63;;;3.55;;
77202;SDS011;66327;50.096;8.498;2023-12-14T02:27:43;8.60;;;3.65;;
77202;SDS011;66327;50.096;8.498;2023-12-14T02:30:10;9.38;;;3.97;;
77202;SDS011;66327;50.096;8.498;2023-12-14T02:32:37;11.20;;;4.28;;
77202;SDS011;66327;50.096;8.498;2023-12-14T02:35:04;9.40;;;4.32;;
77202;SDS011;66327;50.096;8.498;2023-12-14T02:37:31;15.02;;;5.13;;
77202;SDS011;66327;50.096;8.498;2023-12-14T02:39:58;13.02;;;5.47;;
77202;SDS011;66327;50.096;8.498;2023-12-14T02:42:24;15.80;;;5.72;;
77202;SDS011;66327;50.096;8.498;2023-12-14T02:44:51;14.45;;;5.63;;
77202;SDS011;66327;50.096;8.498;2023-12-14T02:47:17;11.65;;;4.45;;
77202;SDS011;66327;50.096;8.498;2023-12-14T02:49:44;12.63;;;5.35;;
77202;SDS011;66327;50.096;8.498;2023-12-14T02:52:10;11.68;;;5.35;;
77202;SDS011;66327;50.096;8.498;2023-12-14T02:54:38;20.15;;;5.80;;
77202;SDS011;66327;50.096;8.498;2023-12-14T02:57:04;16.75;;;5.35;;
77202;SDS011;66327;50.096;8.498;2023-12-14T02:59:30;14.55;;;5.60;;
77202;SDS011;66327;50.096;8.498;2023-12-14T03:01:57;14.50;;;5.57;;
77202;SDS011;66327;50.096;8.498;2023-12-14T03:04:23;12.80;;;4.50;;
77202;SDS011;66327;50.096;8.498;2023-12-14T03:06:50;11.88;;;4.45;;
77202;SDS011;66327;50.096;8.498;2023-12-14T03:09:16;11.07;;;4.60;;
77202;SDS011;66327;50.096;8.498;2023-12-14T03:11:45;11.40;;;4.47;;
77202;SDS011;66327;50.096;8.498;2023-12-14T03:14:11;12.40;;;4.13;;
77202;SDS011;66327;50.096;8.498;2023-12-14T03:16:37;13.25;;;4.88;;
77202;SDS011;66327;50.096;8.498;2023-12-14T03:19:04;10.45;;;4.05;;
77202;SDS011;66327;50.096;8.498;2023-12-14T03:21:30;8.75;;;3.55;;
77202;SDS011;66327;50.096;8.498;2023-12-14T03:23:57;10.05;;;3.90;;
77202;SDS011;66327;50.096;8.498;2023-12-14T03:26:23;7.13;;;3.67;;
77202;SDS011;66327;50.096;8.498;2023-12-14T03:28:49;8.55;;;3.50;;
77202;SDS011;66327;50.096;8.498;2023-12-14T03:31:16;9.80;;;3.95;;
77202;SDS011;66327;50.096;8.498;2023-12-14T03:33:42;9.07;;;3.70;;
77202;SDS011;66327;50.096;8.498;2023-12-14T03:36:09;9.35;;;3.65;;
77202;SDS011;66327;50.096;8.498;2023-12-14T03:38:35;10.32;;;3.53;;
77202;SDS011;66327;50.096;8.498;2023-12-14T03:41:01;11.50;;;3.83;;
77202;SDS011;66327;50.096;8.498;2023-12-14T03:43:29;9.27;;;3.65;;
77202;SDS011;66327;50.096;8.498;2023-12-14T03:45:55;8.70;;;4.40;;
77202;SDS011;66327;50.096;8.498;2023-12-14T03:48:22;10.55;;;4.30;;
77202;SDS011;66327;50.096;8.498;2023-12-14T03:50:48;10.15;;;4.47;;
77202;SDS011;66327;50.096;8.498;2023-12-14T03:53:14;15.32;;;5.32;;
77202;SDS011;66327;50.096;8.498;2023-12-14T03:55:41;10.13;;;3.92;;
77202;SDS011;66327;50.096;8.498;2023-12-14T03:58:07;9.30;;;5.13;;
77202;SDS011;66327;50.096;8.498;2023-12-14T04:00:33;14.45;;;4.22;;
77202;SDS011;66327;50.096;8.498;2023-12-14T04:03:00;12.75;;;5.07;;
77202;SDS011;66327;50.096;8.498;2023-12-14T04:05:26;15.93;;;4.95;;
77202;SDS011;66327;50.096;8.498;2023-12-14T04:07:52;13.40;;;5.22;;
77202;SDS011;66327;50.096;8.498;2023-12-14T04:10:19;12.38;;;4.90;;
77202;SDS011;66327;50.096;8.498;2023-12-14T04:12:45;12.88;;;4.78;;
77202;SDS011;66327;50.096;8.498;2023-12-14T04:15:11;17.85;;;5.68;;
77202;SDS011;66327;50.096;8.498;2023-12-14T04:17:38;11.40;;;5.40;;
77202;SDS011;66327;50.096;8.498;2023-12-14T04:20:04;9.75;;;5.32;;
77202;SDS011;66327;50.096;8.498;2023-12-14T04:22:32;11.43;;;4.57;;
77202;SDS011;66327;50.096;8.498;2023-12-14T04:24:59;12.98;;;4.85;;
77202;SDS011;66327;50.096;8.498;2023-12-14T04:27:25;13.73;;;5.47;;
77202;SDS011;66327;50.096;8.498;2023-12-14T04:29:54;12.25;;;4.95;;
77202;SDS011;66327;50.096;8.498;2023-12-14T04:32:21;10.20;;;4.60;;
77202;SDS011;66327;50.096;8.498;2023-12-14T04:34:47;12.38;;;4.93;;
77202;SDS011;66327;50.096;8.498;2023-12-14T04:37:14;13.95;;;4.10;;
77202;SDS011;66327;50.096;8.498;2023-12-14T04:39:40;9.90;;;4.35;;
77202;SDS011;66327;50.096;8.498;2023-12-14T04:42:06;8.63;;;4.50;;
77202;SDS011;66327;50.096;8.498;2023-12-14T04:44:33;11.18;;;4.70;;
77202;SDS011;66327;50.096;8.498;2023-12-14T04:46:59;8.98;;;4.40;;
77202;SDS011;66327;50.096;8.498;2023-12-14T04:49:25;12.90;;;5.30;;
77202;SDS011;66327;50.096;8.498;2023-12-14T04:51:52;9.10;;;4.45;;
77202;SDS011;66327;50.096;8.498;2023-12-14T04:54:18;8.82;;;4.85;;
77202;SDS011;66327;50.096;8.498;2023-12-14T04:56:47;10.10;;;4.63;;
77202;SDS011;66327;50.096;8.498;2023-12-14T04:59:13;11.98;;;5.25;;
77202;SDS011;66327;50.096;8.498;2023-12-14T05:01:40;10.75;;;4.75;;
77202;SDS011;66327;50.096;8.498;2023-12-14T05:04:06;9.25;;;5.22;;
77202;SDS011;66327;50.096;8.498;2023-12-14T05:06:32;9.05;;;5.18;;
77202;SDS011;66327;50.096;8.498;2023-12-14T05:09:00;9.32;;;4.70;;
77202;SDS011;66327;50.096;8.498;2023-12-14T05:11:29;11.07;;;5.13;;
77202;SDS011;66327;50.096;8.498;2023-12-14T05:13:55;11.77;;;4.85;;
77202;SDS011;66327;50.096;8.498;2023-12-14T05:16:22;9.30;;;4.82;;
77202;SDS011;66327;50.096;8.498;2023-12-14T05:18:52;11.20;;;5.13;;
77202;SDS011;66327;50.096;8.498;2023-12-14T05:21:19;13.02;;;5.35;;
77202;SDS011;66327;50.096;8.498;2023-12-14T05:23:45;13.45;;;5.80;;
77202;SDS011;66327;50.096;8.498;2023-12-14T05:26:12;12.43;;;5.63;;
77202;SDS011;66327;50.096;8.498;2023-12-14T05:28:38;11.32;;;5.00;;
77202;SDS011;66327;50.096;8.498;2023-12-14T05:31:04;14.43;;;5.57;;
77202;SDS011;66327;50.096;8.498;2023-12-14T05:33:30;13.02;;;6.05;;
77202;SDS011;66327;50.096;8.498;2023-12-14T05:35:57;12.35;;;5.63;;
77202;SDS011;66327;50.096;8.498;2023-12-14T05:38:24;11.45;;;5.43;;
77202;SDS011;66327;50.096;8.498;2023-12-14T05:40:50;13.52;;;5.70;;
77202;SDS011;66327;50.096;8.498;2023-12-14T05:43:16;15.27;;;5.70;;
77202;SDS011;66327;50.096;8.498;2023-12-14T05:45:43;17.70;;;6.03;;
77202;SDS011;66327;50.096;8.498;2023-12-14T05:48:09;12.93;;;6.45;;
77202;SDS011;66327;50.096;8.498;2023-12-14T05:50:36;11.73;;;5.82;;
77202;SDS011;66327;50.096;8.498;2023-12-14T05:53:02;17.15;;;6.70;;
77202;SDS011;66327;50.096;8.498;2023-12-14T05:55:29;15.90;;;6.13;;
77202;SDS011;66327;50.096;8.498;2023-12-14T05:57:55;20.38;;;7.80;;
77202;SDS011;66327;50.096;8.498;2023-12-14T06:00:22;20.08;;;8.25;;
77202;SDS011;66327;50.096;8.498;2023-12-14T06:02:48;20.17;;;8.27;;
77202;SDS011;66327;50.096;8.498;2023-12-14T06:05:15;24.67;;;9.68;;
77202;SDS011;66327;50.096;8.498;2023-12-14T06:07:41;17.23;;;6.95;;
77202;SDS011;66327;50.096;8.498;2023-12-14T06:10:09;16.15;;;6.32;;
77202;SDS011;66327;50.096;8.498;2023-12-14T06:12:37;16.55;;;6.45;;
77202;SDS011;66327;50.096;8.498;2023-12-14T06:15:04;10.73;;;5.72;;
77202;SDS011;66327;50.096;8.498;2023-12-14T06:17:30;13.50;;;6.90;;
77202;SDS011;66327;50.096;8.498;2023-12-14T06:19:58;14.32;;;6.05;;
77202;SDS011;66327;50.096;8.498;2023-12-14T06:22:24;20.33;;;7.18;;
77202;SDS011;66327;50.096;8.498;2023-12-14T06:24:50;13.05;;;6.32;;
77202;SDS011;66327;50.096;8.498;2023-12-14T06:27:17;14.40;;;6.82;;
77202;SDS011;66327;50.096;8.498;2023-12-14T06:29:43;15.55;;;6.55;;
77202;SDS011;66327;50.096;8.498;2023-12-14T06:32:09;13.77;;;7.10;;
77202;SDS011;66327;50.096;8.498;2023-12-14T06:34:36;12.13;;;5.50;;
77202;SDS011;66327;50.096;8.498;2023-12-14T06:37:03;16.70;;;6.47;;
77202;SDS011;66327;50.096;8.498;2023-12-14T06:39:29;13.35;;;6.45;;
77202;SDS011;66327;50.096;8.498;2023-12-14T06:41:56;20.25;;;7.15;;
77202;SDS011;66327;50.096;8.498;2023-12-14T06:44:23;19.00;;;7.13;;
77202;SDS011;66327;50.096;8.498;2023-12-14T06:46:51;18.67;;;7.88;;
77202;SDS011;66327;50.096;8.498;2023-12-14T06:49:17;15.43;;;7.10;;
77202;SDS011;66327;50.096;8.498;2023-12-14T06:51:44;16.00;;;7.13;;
77202;SDS011;66327;50.096;8.498;2023-12-14T06:54:17;14.82;;;6.70;;
77202;SDS011;66327;50.096;8.498;2023-12-14T06:56:43;13.80;;;6.70;;
77202;SDS011;66327;50.096;8.498;2023-12-14T06:59:10;21.92;;;9.15;;
77202;SDS011;66327;50.096;8.498;2023-12-14T07:01:36;20.20;;;8.32;;
77202;SDS011;66327;50.096;8.498;2023-12-14T07:04:03;16.58;;;7.07;;
77202;SDS011;66327;50.096;8.498;2023-12-14T07:06:29;16.02;;;7.88;;
77202;SDS011;66327;50.096;8.498;2023-12-14T07:08:56;16.60;;;7.40;;
77202;SDS011;66327;50.096;8.498;2023-12-14T07:11:22;18.45;;;7.35;;
77202;SDS011;66327;50.096;8.498;2023-12-14T07:13:49;20.30;;;8.35;;
77202;SDS011;66327;50.096;8.498;2023-12-14T07:16:15;21.10;;;8.63;;
77202;SDS011;66327;50.096;8.498;2023-12-14T07:18:43;17.33;;;7.72;;
77202;SDS011;66327;50.096;8.498;2023-12-14T07:21:10;14.63;;;8.05;;
77202;SDS011;66327;50.096;8.498;2023-12-14T07:23:37;17.42;;;7.35;;
77202;SDS011;66327;50.096;8.498;2023-12-14T07:26:03;15.32;;;7.60;;
77202;SDS011;66327;50.096;8.498;2023-12-14T07:28:33;15.77;;;7.82;;
77202;SDS011;66327;50.096;8.498;2023-12-14T07:30:59;19.90;;;7.97;;
77202;SDS011;66327;50.096;8.498;2023-12-14T07:33:26;21.83;;;8.23;;
77202;SDS011;66327;50.096;8.498;2023-12-14T07:35:52;21.85;;;8.02;;
77202;SDS011;66327;50.096;8.498;2023-12-14T07:38:18;21.02;;;8.50;;
77202;SDS011;66327;50.096;8.498;2023-12-14T07:40:45;16.63;;;8.63;;
77202;SDS011;66327;50.096;8.498;2023-12-14T07:43:13;20.30;;;9.90;;
77202;SDS011;66327;50.096;8.498;2023-12-14T07:45:39;22.70;;;8.40;;
77202;SDS011;66327;50.096;8.498;2023-12-14T07:48:06;18.95;;;9.23;;
77202;SDS011;66327;50.096;8.498;2023-12-14T07:50:32;19.60;;;9.38;;
77202;SDS011;66327;50.096;8.498;2023-12-14T07:52:58;20.00;;;8.48;;
77202;SDS011;66327;50.096;8.498;2023-12-14T07:55:24;26.88;;;9.75;;
77202;SDS011;66327;50.096;8.498;2023-12-14T07:57:51;23.42;;;9.23;;
77202;SDS011;66327;50.096;8.498;2023-12-14T08:00:17;22.70;;;10.10;;
77202;SDS011;66327;50.096;8.498;2023-12-14T08:02:44;19.17;;;10.00;;
77202;SDS011;66327;50.096;8.498;2023-12-14T08:05:10;29.15;;;10.15;;
77202;SDS011;66327;50.096;8.498;2023-12-14T08:07:36;21.83;;;9.68;;
77202;SDS011;66327;50.096;8.498;2023-12-14T08:10:03;22.13;;;8.68;;
77202;SDS011;66327;50.096;8.498;2023-12-14T08:12:29;18.45;;;8.10;;
77202;SDS011;66327;50.096;8.498;2023-12-14T08:14:56;19.92;;;8.55;;
77202;SDS011;66327;50.096;8.498;2023-12-14T08:17:22;27.13;;;8.90;;
77202;SDS011;66327;50.096;8.498;2023-12-14T08:19:48;21.42;;;8.85;;
77202;SDS011;66327;50.096;8.498;2023-12-14T08:22:14;15.95;;;7.25;;
77202;SDS011;66327;50.096;8.498;2023-12-14T08:24:41;18.40;;;8.30;;
77202;SDS011;66327;50.096;8.498;2023-12-14T08:27:08;15.52;;;7.60;;
77202;SDS011;66327;50.096;8.498;2023-12-14T08:29:34;16.02;;;7.60;;
77202;SDS011;66327;50.096;8.498;2023-12-14T08:32:00;14.35;;;7.28;;
77202;SDS011;66327;50.096;8.498;2023-12-14T08:34:27;17.23;;;7.75;;
77202;SDS011;66327;50.096;8.498;2023-12-14T08:36:53;17.05;;;7.18;;
77202;SDS011;66327;50.096;8.498;2023-12-14T08:39:19;18.88;;;7.97;;
77202;SDS011;66327;50.096;8.498;2023-12-14T08:41:46;23.40;;;8.93;;
77202;SDS011;66327;50.096;8.498;2023-12-14T08:44:13;18.08;;;7.95;;
77202;SDS011;66327;50.096;8.498;2023-12-14T08:46:40;19.27;;;8.45;;
77202;SDS011;66327;50.096;8.498;2023-12-14T08:49:07;20.90;;;8.48;;
77202;SDS011;66327;50.096;8.498;2023-12-14T08:51:33;16.85;;;7.68;;
77202;SDS011;66327;50.096;8.498;2023-12-14T08:53:59;20.27;;;9.82;;
77202;SDS011;66327;50.096;8.498;2023-12-14T08:56:25;18.77;;;7.60;;
77202;SDS011;66327;50.096;8.498;2023-12-14T08:58:52;22.20;;;8.32;;
77202;SDS011;66327;50.096;8.498;2023-12-14T09:01:19;16.70;;;8.02;;
77202;SDS011;66327;50.096;8.498;2023-12-14T09:03:46;16.73;;;7.60;;
77202;SDS011;66327;50.096;8.498;2023-12-14T09:06:13;18.00;;;8.10;;
77202;SDS011;66327;50.096;8.498;2023-12-14T09:08:40;18.90;;;8.05;;
77202;SDS011;66327;50.096;8.498;2023-12-14T09:11:07;21.80;;;8.40;;
77202;SDS011;66327;50.096;8.498;2023-12-14T09:13:33;17.27;;;7.75;;
77202;SDS011;66327;50.096;8.498;2023-12-14T09:16:00;8.73;;;4.70;;
77202;SDS011;66327;50.096;8.498;2023-12-14T09:18:26;9.95;;;4.78;;
77202;SDS011;66327;50.096;8.498;2023-12-14T09:20:52;9.82;;;3.72;;
77202;SDS011;66327;50.096;8.498;2023-12-14T09:23:19;8.13;;;3.60;;
77202;SDS011;66327;50.096;8.498;2023-12-14T09:25:45;7.10;;;3.53;;
77202;SDS011;66327;50.096;8.498;2023-12-14T09:28:12;6.65;;;3.30;;
77202;SDS011;66327;50.096;8.498;2023-12-14T09:30:38;6.78;;;3.38;;
77202;SDS011;66327;50.096;8.498;2023-12-14T09:33:05;5.57;;;2.35;;
77202;SDS011;66327;50.096;8.498;2023-12-14T09:35:35;8.57;;;3.95;;
77202;SDS011;66327;50.096;8.498;2023-12-14T09:38:05;8.63;;;3.65;;
77202;SDS011;66327;50.096;8.498;2023-12-14T09:40:32;7.97;;;3.22;;
77202;SDS011;66327;50.096;8.498;2023-12-14T09:42:58;8.10;;;3.90;;
77202;SDS011;66327;50.096;8.498;2023-12-14T09:45:27;5.63;;;2.53;;
77202;SDS011;66327;50.096;8.498;2023-12-14T09:47:53;9.93;;;4.13;;
77202;SDS011;66327;50.096;8.498;2023-12-14T09:50:20;7.50;;;3.35;;
77202;SDS011;66327;50.096;8.498;2023-12-14T09:52:47;7.20;;;3.15;;
77202;SDS011;66327;50.096;8.498;2023-12-14T09:55:15;8.82;;;3.92;;
77202;SDS011;66327;50.096;8.498;2023-12-14T09:57:41;8.18;;;2.72;;
77202;SDS011;66327;50.096;8.498;2023-12-14T10:00:08;4.30;;;2.00;;
77202;SDS011;66327;50.096;8.498;2023-12-14T10:02:37;7.65;;;3.42;;
77202;SDS011;66327;50.096;8.498;2023-12-14T10:05:05;6.28;;;3.03;;
77202;SDS011;66327;50.096;8.498;2023-12-14T10:07:31;6.90;;;3.10;;
77202;SDS011;66327;50.096;8.498;2023-12-14T10:10:11;7.10;;;3.90;;
77202;SDS011;66327;50.096;8.498;2023-12-14T10:12:50;5.75;;;2.83;;
77202;SDS011;66327;50.096;8.498;2023-12-14T10:15:16;6.15;;;3.28;;
77202;SDS011;66327;50.096;8.498;2023-12-14T10:17:42;9.57;;;4.50;;
77202;SDS011;66327;50.096;8.498;2023-12-14T10:20:09;8.20;;;3.17;;
77202;SDS011;66327;50.096;8.498;2023-12-14T10:22:36;6.18;;;2.72;;
77202;SDS011;66327;50.096;8.498;2023-12-14T10:25:03;8.27;;;3.20;;
77202;SDS011;66327;50.096;8.498;2023-12-14T10:29:58;7.55;;;3.08;;
77202;SDS011;66327;50.096;8.498;2023-12-14T10:32:24;6.63;;;2.70;;
77202;SDS011;66327;50.096;8.498;2023-12-14T10:34:51;6.00;;;2.00;;
77202;SDS011;66327;50.096;8.498;2023-12-14T10:37:17;7.78;;;3.17;;
77202;SDS011;66327;50.096;8.498;2023-12-14T10:39:44;5.07;;;2.35;;
77202;SDS011;66327;50.096;8.498;2023-12-14T10:42:11;5.85;;;2.70;;
77202;SDS011;66327;50.096;8.498;2023-12-14T10:44:46;7.07;;;2.88;;
77202;SDS011;66327;50.096;8.498;2023-12-14T10:47:33;6.78;;;3.22;;
77202;SDS011;66327;50.096;8.498;2023-12-14T10:50:01;7.70;;;3.58;;
77202;SDS011;66327;50.096;8.498;2023-12-14T10:52:28;8.07;;;4.20;;
77202;SDS011;66327;50.096;8.498;2023-12-14T10:54:58;8.23;;;3.97;;
77202;SDS011;66327;50.096;8.498;2023-12-14T10:57:26;6.35;;;2.72;;
77202;SDS011;66327;50.096;8.498;2023-12-14T10:59:59;10.85;;;3.65;;
77202;SDS011;66327;50.096;8.498;2023-12-14T11:02:26;8.23;;;3.35;;
77202;SDS011;66327;50.096;8.498;2023-12-14T11:04:56;11.15;;;4.03;;
77202;SDS011;66327;50.096;8.498;2023-12-14T11:10:08;5.95;;;2.83;;
77202;SDS011;66327;50.096;8.498;2023-12-14T11:12:35;10.65;;;3.95;;
77202;SDS011;66327;50.096;8.498;2023-12-14T11:15:01;8.18;;;3.55;;
77202;SDS011;66327;50.096;8.498;2023-12-14T11:17:30;9.70;;;4.20;;
77202;SDS011;66327;50.096;8.498;2023-12-14T11:19:56;8.40;;;3.80;;
77202;SDS011;66327;50.096;8.498;2023-12-14T11:22:23;6.05;;;3.05;;
77202;SDS011;66327;50.096;8.498;2023-12-14T11:24:51;5.78;;;2.80;;
77202;SDS011;66327;50.096;8.498;2023-12-14T11:27:19;14.00;;;5.22;;
77202;SDS011;66327;50.096;8.498;2023-12-14T11:29:45;8.70;;;3.90;;
77202;SDS011;66327;50.096;8.498;2023-12-14T11:34:40;5.32;;;2.38;;
77202;SDS011;66327;50.096;8.498;2023-12-14T11:37:07;3.85;;;1.90;;
77202;SDS011;66327;50.096;8.498;2023-12-14T11:39:33;5.68;;;2.40;;
77202;SDS011;66327;50.096;8.498;2023-12-14T11:44:26;3.53;;;1.77;;
77202;SDS011;66327;50.096;8.498;2023-12-14T11:46:52;3.92;;;2.25;;
77202;SDS011;66327;50.096;8.498;2023-12-14T11:49:19;4.30;;;2.20;;
77202;SDS011;66327;50.096;8.498;2023-12-14T11:51:46;2.47;;;1.58;;
77202;SDS011;66327;50.096;8.498;2023-12-14T11:54:12;2.53;;;1.25;;
77202;SDS011;66327;50.096;8.498;2023-12-14T11:56:39;3.88;;;1.90;;
77202;SDS011;66327;50.096;8.498;2023-12-14T11:59:15;3.38;;;1.95;;
77202;SDS011;66327;50.096;8.498;2023-12-14T12:01:53;4.63;;;2.00;;
77202;SDS011;66327;50.096;8.498;2023-12-14T12:04:19;5.18;;;2.25;;
77202;SDS011;66327;50.096;8.498;2023-12-14T12:06:46;3.95;;;2.08;;
77202;SDS011;66327;50.096;8.498;2023-12-14T12:09:13;3.80;;;1.90;;
77202;SDS011;66327;50.096;8.498;2023-12-14T12:11:39;2.67;;;1.55;;
77202;SDS011;66327;50.096;8.498;2023-12-14T12:14:06;4.38;;;2.15;;
77202;SDS011;66327;50.096;8.498;2023-12-14T12:16:32;7.38;;;2.30;;
77202;SDS011;66327;50.096;8.498;2023-12-14T12:19:00;5.10;;;2.40;;
77202;SDS011;66327;50.096;8.498;2023-12-14T12:21:26;5.00;;;2.60;;
77202;SDS011;66327;50.096;8.498;2023-12-14T12:23:52;5.88;;;2.60;;
77202;SDS011;66327;50.096;8.498;2023-12-14T12:26:19;5.40;;;2.60;;
77202;SDS011;66327;50.096;8.498;2023-12-14T12:28:45;4.25;;;2.20;;
77202;SDS011;66327;50.096;8.498;2023-12-14T12:31:14;4.68;;;2.42;;
77202;SDS011;66327;50.096;8.498;2023-12-14T12:33:40;5.72;;;2.80;;
77202;SDS011;66327;50.096;8.498;2023-12-14T12:36:07;6.25;;;2.80;;
77202;SDS011;66327;50.096;8.498;2023-12-14T12:38:37;7.43;;;3.20;;
77202;SDS011;66327;50.096;8.498;2023-12-14T12:41:07;7.10;;;3.33;;
77202;SDS011;66327;50.096;8.498;2023-12-14T12:43:33;5.35;;;2.92;;
77202;SDS011;66327;50.096;8.498;2023-12-14T12:45:59;6.38;;;2.90;;
77202;SDS011;66327;50.096;8.498;2023-12-14T12:48:25;5.88;;;2.47;;
77202;SDS011;66327;50.096;8.498;2023-12-14T12:50:53;4.82;;;2.08;;
77202;SDS011;66327;50.096;8.498;2023-12-14T12:53:20;5.38;;;2.60;;
77202;SDS011;66327;50.096;8.498;2023-12-14T12:55:46;6.43;;;3.28;;
77202;SDS011;66327;50.096;8.498;2023-12-14T12:58:13;2.92;;;1.58;;
77202;SDS011;66327;50.096;8.498;2023-12-14T13:00:40;6.90;;;3.40;;
77202;SDS011;66327;50.096;8.498;2023-12-14T13:03:07;7.88;;;3.25;;
77202;SDS011;66327;50.096;8.498;2023-12-14T13:05:33;6.50;;;3.20;;
77202;SDS011;66327;50.096;8.498;2023-12-14T13:07:59;6.15;;;2.63;;
77202;SDS011;66327;50.096;8.498;2023-12-14T13:10:26;5.78;;;3.10;;
77202;SDS011;66327;50.096;8.498;2023-12-14T13:12:57;7.88;;;3.97;;
77202;SDS011;66327;50.096;8.498;2023-12-14T13:15:24;5.03;;;2.45;;
77202;SDS011;66327;50.096;8.498;2023-12-14T13:17:52;6.93;;;2.65;;
77202;SDS011;66327;50.096;8.498;2023-12-14T13:20:18;6.18;;;3.03;;
77202;SDS011;66327;50.096;8.498;2023-12-14T13:22:45;5.97;;;2.30;;
77202;SDS011;66327;50.096;8.498;2023-12-14T13:25:11;5.43;;;2.70;;
77202;SDS011;66327;50.096;8.498;2023-12-14T13:27:38;6.13;;;3.38;;
77202;SDS011;66327;50.096;8.498;2023-12-14T13:30:04;7.38;;;2.38;;
77202;SDS011;66327;50.096;8.498;2023-12-14T13:32:32;5.20;;;2.60;;
77202;SDS011;66327;50.096;8.498;2023-12-14T13:34:58;8.98;;;2.97;;
77202;SDS011;66327;50.096;8.498;2023-12-14T13:37:25;7.68;;;3.80;;
77202;SDS011;66327;50.096;8.498;2023-12-14T13:39:51;7.78;;;3.28;;
77202;SDS011;66327;50.096;8.498;2023-12-14T13:42:19;7.90;;;3.38;;
77202;SDS011;66327;50.096;8.498;2023-12-14T13:44:45;4.35;;;2.47;;
77202;SDS011;66327;50.096;8.498;2023-12-14T13:47:11;8.32;;;3.50;;
77202;SDS011;66327;50.096;8.498;2023-12-14T13:49:37;7.88;;;3.33;;
77202;SDS011;66327;50.096;8.498;2023-12-14T13:52:04;6.88;;;3.45;;
77202;SDS011;66327;50.096;8.498;2023-12-14T13:54:30;7.25;;;2.13;;
77202;SDS011;66327;50.096;8.498;2023-12-14T13:56:57;5.10;;;2.65;;
77202;SDS011;66327;50.096;8.498;2023-12-14T13:59:23;7.25;;;3.60;;
77202;SDS011;66327;50.096;8.498;2023-12-14T14:01:49;7.78;;;3.80;;
77202;SDS011;66327;50.096;8.498;2023-12-14T14:04:19;6.57;;;3.28;;
77202;SDS011;66327;50.096;8.498;2023-12-14T14:06:45;2.17;;;1.23;;
77202;SDS011;66327;50.096;8.498;2023-12-14T14:09:12;6.43;;;3.53;;
77202;SDS011;66327;50.096;8.498;2023-12-14T14:11:38;8.38;;;3.65;;
77202;SDS011;66327;50.096;8.498;2023-12-14T14:14:11;6.05;;;2.95;;
77202;SDS011;66327;50.096;8.498;2023-12-14T14:16:38;5.57;;;2.60;;
77202;SDS011;66327;50.096;8.498;2023-12-14T14:19:04;7.22;;;4.00;;
77202;SDS011;66327;50.096;8.498;2023-12-14T14:21:30;7.28;;;3.90;;
77202;SDS011;66327;50.096;8.498;2023-12-14T14:23:57;6.80;;;3.08;;
77202;SDS011;66327;50.096;8.498;2023-12-14T14:26:23;6.35;;;3.33;;
77202;SDS011;66327;50.096;8.498;2023-12-14T14:28:49;7.03;;;3.60;;
77202;SDS011;66327;50.096;8.498;2023-12-14T14:31:16;6.30;;;2.78;;
77202;SDS011;66327;50.096;8.498;2023-12-14T14:33:42;7.22;;;4.05;;
77202;SDS011;66327;50.096;8.498;2023-12-14T14:36:10;6.63;;;2.65;;
77202;SDS011;66327;50.096;8.498;2023-12-14T14:38:36;5.95;;;2.80;;
77202;SDS011;66327;50.096;8.498;2023-12-14T14:41:02;3.53;;;2.10;;
77202;SDS011;66327;50.096;8.498;2023-12-14T14:43:29;5.75;;;3.15;;
77202;SDS011;66327;50.096;8.498;2023-12-14T14:45:55;7.55;;;3.33;;
77202;SDS011;66327;50.096;8.498;2023-12-14T14:48:21;16.67;;;4.55;;